CST,Max TemperatureF,Mean TemperatureF,Min TemperatureF,Max Dew PointF,MeanDew PointF,Min DewpointF,Max Humidity, Mean Humidity, Min Humidity, Max Sea Level PressureIn, Mean Sea Level PressureIn, Min Sea Level PressureIn, Max VisibilityMiles, Mean VisibilityMiles, Min VisibilityMiles, Max Wind SpeedMPH, Mean Wind SpeedMPH, Max Gust SpeedMPH,PrecipitationIn, CloudCover, Events, WindDirDegrees
2013-1-1,69,66,64,66,65,63,94,90,88,30.00,29.97,29.92,7,7,7,18,11,,0.00,6,,170
2013-1-2,53,52,50,52,51,50,100,97,94,30.14,30.12,30.04,7,4,2,23,20,23,0.00,8,,348
2013-1-3,46,46,46,46,45,43,100,93,87,30.27,30.23,30.20,7,6,5,23,20,,0.00,8,Rain,357
2013-1-4,46,,46,41,41,41,81,81,81,30.30,30.30,30.30,7,7,7,15,15,,0.00,3,,30
2013-1-5,55,53,53,54,51,50,94,90,88,30.30,30.25,30.19,7,7,7,18,16,,0.00,7,,33
2013-1-6,55,53,51,54,51,50,94,92,88,30.19,30.17,30.12,7,6,2,29,20,,0.00,8,,24
2013-1-7,57,53,53,52,46,41,94,74,55,30.25,30.24,30.23,7,7,7,21,16,,0.00,4,,30
2013-1-8,62,62,62,63,61,59,100,94,88,30.10,30.08,30.06,7,6,5,21,15,,0.00,5,,60
2013-1-9,69,64,62,66,65,63,100,96,88,30.15,30.11,30.08,4,4,3,15,14,,0.00,8,,77
2013-1-10,68,67,64,68,67,64,100,100,100,30.14,30.10,30.04,1,1,0,26,20,,0.00,8,Fog-Rain,101
2013-1-11,68,64,64,66,65,64,100,98,94,30.07,30.05,30.03,7,6,3,14,9,,0.00,6,,137
2013-1-12,73,68,64,70,68,64,100,93,83,30.00,29.99,29.97,7,4,0,10,7,,0.00,6,Fog,113
2013-1-13,73,70,66,70,68,64,94,92,88,29.94,29.93,29.91,7,6,6,16,11,,0.00,7,,167
2013-1-14,69,64,59,68,64,59,100,98,94,30.04,30.02,30.00,4,3,2,21,11,,0.00,7,Fog,45
2013-1-15,68,62,57,68,63,57,100,100,100,30.03,29.97,29.92,0,0,0,14,10,,0.00,,Fog,18
2013-1-16,50,48,46,50,47,46,100,100,100,30.08,30.05,29.96,10,8,7,22,19,,0.00,8,,313
2013-1-17,48,42,42,41,40,39,87,82,76,30.29,30.25,30.22,7,7,7,21,20,,0.00,2,,280
2013-1-18,55,47,44,48,46,43,93,86,77,30.41,30.29,30.06,7,7,7,17,16,29,0.00,4,,337
2013-1-19,60,51,51,54,48,43,77,74,71,30.31,30.29,30.26,7,7,7,12,12,23,0.00,2,,30
2013-1-20,60,55,55,55,55,55,100,91,82,30.22,30.18,30.14,7,7,7,7,7,,0.00,0,,70
2013-1-21,60,55,55,54,53,52,94,83,72,30.18,30.16,30.14,7,7,7,8,7,,0.00,6,,345
2013-1-22,60,56,55,52,52,52,88,81,72,30.31,30.27,30.22,7,7,7,15,13,,0.00,4,,50
2013-1-23,62,58,55,59,54,50,88,82,77,30.38,30.34,30.32,7,7,7,7,6,,0.00,0,,113
2013-1-24,69,57,57,64,60,57,100,94,83,30.30,30.30,30.30,7,6,5,8,5,,0.00,1,Fog,123
2013-1-25,64,61,60,63,61,59,100,96,94,30.24,30.21,30.18,7,7,7,12,11,,0.00,1,,0
2013-1-26,71,65,62,64,63,61,94,85,73,30.25,30.22,30.20,7,7,7,6,5,,0.00,3,,135
2013-1-27,69,64,64,64,63,61,88,86,83,30.23,30.22,30.21,7,7,7,13,10,,0.00,4,,45
2013-1-28,69,62,62,66,64,61,94,91,88,30.18,30.16,30.15,7,7,7,10,10,,0.00,2,,95
2013-1-29,73,68,64,70,66,64,100,94,88,30.05,29.99,29.88,7,5,3,14,10,,0.00,3,,138
2013-1-30,71,66,55,70,65,54,100,98,94,29.82,29.75,29.70,7,4,3,29,26,34,0.00,8,Rain,218
2013-1-31,60,50,48,41,39,36,67,58,45,30.31,30.27,30.22,7,7,7,13,10,,0.00,2,,325